Time;durP1;ratioP1;P1;durP2;ratioP2;P2;SDS_P1;SDS_P2;PMS_P1;PMS_P2;Temp;Humidity;BMP_temperature;BMP_pressure;BME280_temperature;BME280_humidity;BME280_pressure;Samples;Min_cycle;Max_cycle;Signal;HPM_P1;HPM_P2
2023/10/17 00:02:26;;;;;;;0.17;0.17;;;;;;;;;;4887708;29;20479;-90
2023/10/17 00:04:52;;;;;;;0.10;0.10;;;;;;;;;;4888427;29;20047;-90
2023/10/17 00:07:20;;;;;;;0.10;0.10;;;;;;;;;;4918162;29;20052;-90
2023/10/17 00:09:48;;;;;;;0.10;0.10;;;;;;;;;;4887173;29;20555;-90
2023/10/17 00:14:57;;;;;;;0.10;0.10;;;;;;;;;;4902687;29;20047;-90
2023/10/17 00:17:25;;;;;;;0.10;0.10;;;;;;;;;;4902717;29;20050;-90
2023/10/17 00:19:51;;;;;;;0.10;0.10;;;;;;;;;;4887183;29;20044;-90
2023/10/17 00:22:23;;;;;;;0.10;0.10;;;;;;;;;;4902320;29;20039;-90
2023/10/17 00:24:55;;;;;;;0.10;0.10;;;;;;;;;;4903194;29;20075;-90
2023/10/17 00:27:22;;;;;;;0.10;0.10;;;;;;;;;;4887653;29;20040;-90
2023/10/17 00:29:49;;;;;;;0.10;0.10;;;;;;;;;;4902514;29;20054;-90
2023/10/17 00:32:15;;;;;;;0.10;0.10;;;;;;;;;;4902155;29;20091;-90
2023/10/17 00:34:41;;;;;;;0.10;0.10;;;;;;;;;;4886687;29;20092;-91
2023/10/17 00:37:11;;;;;;;0.10;0.10;;;;;;;;;;4886872;29;20050;-90
2023/10/17 00:39:37;;;;;;;0.10;0.10;;;;;;;;;;4887218;29;20054;-90
2023/10/17 00:44:34;;;;;;;0.10;0.10;;;;;;;;;;4902236;29;20196;-90
2023/10/17 00:47:00;;;;;;;0.10;0.10;;;;;;;;;;4902162;29;20043;-90
2023/10/17 00:49:29;;;;;;;0.10;0.10;;;;;;;;;;4901966;29;20103;-89
2023/10/17 00:51:55;;;;;;;0.10;0.10;;;;;;;;;;4887312;29;20040;-89
2023/10/17 00:54:24;;;;;;;0.10;0.10;;;;;;;;;;4902081;29;20051;-89
2023/10/17 00:56:50;;;;;;;0.10;0.10;;;;;;;;;;4886656;29;20503;-89
2023/10/17 00:59:16;;;;;;;0.10;0.10;;;;;;;;;;4902023;29;20054;-89
2023/10/17 01:01:42;;;;;;;0.10;0.10;;;;;;;;;;4901946;29;20126;-88
2023/10/17 01:04:13;;;;;;;0.10;0.10;;;;;;;;;;4901818;29;20075;-89
2023/10/17 01:06:40;;;;;;;0.10;0.10;;;;;;;;;;4902527;29;20433;-88
2023/10/17 01:09:17;;;;;;;0.10;0.10;;;;;;;;;;4901932;29;20053;-89
2023/10/17 01:11:45;;;;;;;0.10;0.10;;;;;;;;;;4887863;29;20051;-88
2023/10/17 01:14:18;;;;;;;0.10;0.10;;;;;;;;;;4917303;29;20131;-89
2023/10/17 01:16:45;;;;;;;0.10;0.10;;;;;;;;;;4903300;29;20051;-89
2023/10/17 01:19:11;;;;;;;0.10;0.10;;;;;;;;;;4901700;29;20044;-89
2023/10/17 01:21:40;;;;;;;0.10;0.10;;;;;;;;;;4901789;29;20043;-89
2023/10/17 01:24:07;;;;;;;0.10;0.10;;;;;;;;;;4886900;29;20398;-90
2023/10/17 01:26:37;;;;;;;0.10;0.10;;;;;;;;;;4900633;29;20044;-89
2023/10/17 01:29:04;;;;;;;0.10;0.10;;;;;;;;;;4902443;29;20079;-90
2023/10/17 01:31:31;;;;;;;0.10;0.10;;;;;;;;;;4917409;29;20123;-89
2023/10/17 01:34:00;;;;;;;0.10;0.10;;;;;;;;;;4888256;29;20051;-89
2023/10/17 01:36:26;;;;;;;0.10;0.10;;;;;;;;;;4905087;29;20039;-89
2023/10/17 01:38:54;;;;;;;0.10;0.10;;;;;;;;;;4905276;29;20047;-89
2023/10/17 01:41:20;;;;;;;0.10;0.10;;;;;;;;;;4905486;29;20063;-89
2023/10/17 01:43:47;;;;;;;0.10;0.10;;;;;;;;;;4905259;29;20047;-89
2023/10/17 01:46:21;;;;;;;0.10;0.10;;;;;;;;;;4905101;29;20039;-89
2023/10/17 01:48:48;;;;;;;0.10;0.10;;;;;;;;;;4906129;29;20055;-89
2023/10/17 01:51:15;;;;;;;0.10;0.10;;;;;;;;;;4920687;29;20054;-89
2023/10/17 01:53:41;;;;;;;0.10;0.10;;;;;;;;;;4905074;29;20044;-88
2023/10/17 01:56:16;;;;;;;0.10;0.10;;;;;;;;;;4905016;29;20046;-89
2023/10/17 01:58:48;;;;;;;0.10;0.10;;;;;;;;;;4906230;29;20465;-89
2023/10/17 02:01:18;;;;;;;0.10;0.10;;;;;;;;;;4905121;29;20059;-89
2023/10/17 02:03:47;;;;;;;0.20;0.20;;;;;;;;;;4904904;29;20043;-89
2023/10/17 02:06:16;;;;;;;0.10;0.10;;;;;;;;;;4904493;29;20055;-89
2023/10/17 02:08:46;;;;;;;0.10;0.10;;;;;;;;;;4905160;29;20044;-89
2023/10/17 02:11:13;;;;;;;0.10;0.10;;;;;;;;;;4905202;29;20485;-89
2023/10/17 02:13:45;;;;;;;0.10;0.10;;;;;;;;;;4904800;29;20138;-90
2023/10/17 02:16:12;;;;;;;0.10;0.10;;;;;;;;;;4904996;29;20082;-90
2023/10/17 02:18:38;;;;;;;0.10;0.10;;;;;;;;;;4904701;29;20411;-90
2023/10/17 02:21:04;;;;;;;0.10;0.10;;;;;;;;;;4904856;29;20044;-90
2023/10/17 02:23:35;;;;;;;0.10;0.10;;;;;;;;;;4904632;29;20040;-90
2023/10/17 02:26:08;;;;;;;0.10;0.10;;;;;;;;;;4905221;29;20404;-90
2023/10/17 02:28:44;;;;;;;;;;;;;;;;;;4905825;29;20047;-90
2023/10/17 02:31:12;;;;;;;0.10;0.10;;;;;;;;;;4920088;29;19925;-90
2023/10/17 02:33:41;;;;;;;0.10;0.10;;;;;;;;;;4904483;29;20047;-90
2023/10/17 02:36:16;;;;;;;0.10;0.10;;;;;;;;;;4904671;29;20110;-91
2023/10/17 02:38:43;;;;;;;0.10;0.10;;;;;;;;;;4904276;29;20047;-91
2023/10/17 02:41:13;;;;;;;0.10;0.10;;;;;;;;;;4904718;29;20051;-90
2023/10/17 02:43:44;;;;;;;0.20;0.20;;;;;;;;;;4904635;29;20120;-90
2023/10/17 02:46:12;;;;;;;0.10;0.10;;;;;;;;;;4904756;29;20055;-89
2023/10/17 02:48:38;;;;;;;0.10;0.10;;;;;;;;;;4904434;29;20051;-89
2023/10/17 02:51:19;;;;;;;0.10;0.10;;;;;;;;;;4904126;29;20560;-89
2023/10/17 02:53:45;;;;;;;0.10;0.10;;;;;;;;;;4905880;29;20039;-89
2023/10/17 02:56:20;;;;;;;0.10;0.10;;;;;;;;;;4903833;29;20044;-89
2023/10/17 03:01:32;;;;;;;0.10;0.10;;;;;;;;;;4906274;29;20098;-89
2023/10/17 03:04:09;;;;;;;0.10;0.10;;;;;;;;;;4903883;29;20050;-90
2023/10/17 03:06:39;;;;;;;0.10;0.10;;;;;;;;;;4904792;29;20095;-89
2023/10/17 03:11:49;;;;;;;0.10;0.10;;;;;;;;;;4919267;29;20047;-89
2023/10/17 03:14:19;;;;;;;0.40;0.40;;;;;;;;;;4903798;29;20046;-89
2023/10/17 03:16:54;;;;;;;0.10;0.10;;;;;;;;;;4903954;29;20047;-89
2023/10/17 03:19:25;;;;;;;0.10;0.10;;;;;;;;;;4903807;29;20047;-89
2023/10/17 03:21:53;;;;;;;0.10;0.10;;;;;;;;;;4904057;29;20050;-89
2023/10/17 03:24:19;;;;;;;0.10;0.10;;;;;;;;;;4903852;29;20126;-89
2023/10/17 03:26:54;;;;;;;0.10;0.10;;;;;;;;;;4903728;29;20043;-89
2023/10/17 03:29:23;;;;;;;0.10;0.10;;;;;;;;;;4904518;29;20107;-90
2023/10/17 03:31:53;;;;;;;0.10;0.10;;;;;;;;;;4903578;29;20183;-90
2023/10/17 03:34:34;;;;;;;0.10;0.10;;;;;;;;;;4903560;29;20489;-89
2023/10/17 03:37:26;;;;;;;0.10;0.10;;;;;;;;;;4905112;29;20433;-89
2023/10/17 03:39:52;;;;;;;0.10;0.10;;;;;;;;;;4919057;29;20051;-89
2023/10/17 03:48:13;;;;;;;0.10;0.10;;;;;;;;;;4880100;29;20588;-89
2023/10/17 03:53:29;;;;;;;0.10;0.10;;;;;;;;;;4918848;29;20409;-88
2023/10/17 03:55:55;;;;;;;0.10;0.10;;;;;;;;;;4904222;29;20409;-89
2023/10/17 03:58:31;;;;;;;0.10;0.10;;;;;;;;;;4902804;29;20054;-89
2023/10/17 04:01:06;;;;;;;0.10;0.10;;;;;;;;;;4903984;29;20492;-89
2023/10/17 04:03:35;;;;;;;0.10;0.10;;;;;;;;;;4903688;29;20130;-89
2023/10/17 04:06:13;;;;;;;0.10;0.10;;;;;;;;;;4902799;29;20401;-89
2023/10/17 04:08:48;;;;;;;0.10;0.10;;;;;;;;;;4904590;29;20198;-89
2023/10/17 04:13:50;;;;;;;0.10;0.10;;;;;;;;;;4902903;29;20130;-89
2023/10/17 04:16:21;;;;;;;0.10;0.10;;;;;;;;;;4902529;29;20046;-89
2023/10/17 04:18:48;;;;;;;0.10;0.10;;;;;;;;;;4903132;29;20175;-89
2023/10/17 04:21:27;;;;;;;0.10;0.10;;;;;;;;;;4902852;29;20051;-88
2023/10/17 04:23:55;;;;;;;0.10;0.10;;;;;;;;;;4904046;29;20095;-90
2023/10/17 04:26:27;;;;;;;0.10;0.10;;;;;;;;;;4902481;29;20094;-89
2023/10/17 04:28:55;;;;;;;0.10;0.10;;;;;;;;;;4903163;29;20054;-90
2023/10/17 04:31:30;;;;;;;0.10;0.10;;;;;;;;;;4902378;29;20039;-90
2023/10/17 04:34:06;;;;;;;0.10;0.10;;;;;;;;;;4902362;29;20405;-90
2023/10/17 04:36:36;;;;;;;0.10;0.10;;;;;;;;;;4903424;29;20046;-90
2023/10/17 04:44:20;;;;;;;0.10;0.10;;;;;;;;;;4902698;29;20055;-89
2023/10/17 04:46:50;;;;;;;0.10;0.10;;;;;;;;;;4902331;29;20052;-90
2023/10/17 04:49:21;;;;;;;0.10;0.10;;;;;;;;;;4902395;29;20178;-90
2023/10/17 04:52:08;;;;;;;0.10;0.10;;;;;;;;;;4902704;29;20058;-90
2023/10/17 04:57:04;;;;;;;0.10;0.10;;;;;;;;;;4902017;29;20134;-89
2023/10/17 06:18:58;;;;;;;0.10;0.10;;;;;;;;;;4906765;29;20051;-90
2023/10/17 06:21:38;;;;;;;0.10;0.10;;;;;;;;;;4920588;29;20417;-90
2023/10/17 06:34:35;;;;;;;0.20;0.20;;;;;;;;;;4907299;29;20044;-91
2023/10/17 06:37:07;;;;;;;0.10;0.10;;;;;;;;;;4889058;29;20094;-91
2023/10/17 06:39:46;;;;;;;0.10;0.10;;;;;;;;;;4905865;29;20496;-88
2023/10/17 06:42:15;;;;;;;0.10;0.10;;;;;;;;;;4919918;29;20048;-87
2023/10/17 06:45:07;;;;;;;0.10;0.10;;;;;;;;;;4904419;29;20040;-88
2023/10/17 06:47:41;;;;;;;0.10;0.10;;;;;;;;;;4906741;29;20135;-88
2023/10/17 06:55:21;;;;;;;0.10;0.10;;;;;;;;;;4920001;29;20055;-91
2023/10/17 06:57:51;;;;;;;0.10;0.10;;;;;;;;;;4904295;29;20135;-87
2023/10/17 07:03:03;;;;;;;0.10;0.10;;;;;;;;;;4887582;29;20126;-89
2023/10/17 07:05:29;;;;;;;0.10;0.10;;;;;;;;;;4892983;29;20462;-89
2023/10/17 07:07:59;;;;;;;0.10;0.10;;;;;;;;;;4919135;29;20055;-89
2023/10/17 07:13:22;;;;;;;0.10;0.10;;;;;;;;;;4886079;29;20044;-87
2023/10/17 07:15:52;;;;;;;0.13;0.13;;;;;;;;;;4894922;29;20091;-87
2023/10/17 07:21:15;;;;;;;0.10;0.10;;;;;;;;;;4900841;29;20413;-87
2023/10/17 07:23:45;;;;;;;0.15;0.15;;;;;;;;;;4905252;29;20118;-87
2023/10/17 07:26:17;;;;;;;0.10;0.10;;;;;;;;;;4900422;29;20047;-88
2023/10/17 07:28:49;;;;;;;0.10;0.10;;;;;;;;;;4894050;29;20661;-88
2023/10/17 07:31:16;;;;;;;0.10;0.10;;;;;;;;;;4883197;29;20383;-87
2023/10/17 07:33:46;;;;;;;0.10;0.10;;;;;;;;;;4915893;29;20143;-88
2023/10/17 07:36:22;;;;;;;0.10;0.10;;;;;;;;;;4912281;29;20091;-87
2023/10/17 07:38:48;;;;;;;0.10;0.10;;;;;;;;;;4904244;29;20044;-87
2023/10/17 07:41:14;;;;;;;0.10;0.10;;;;;;;;;;4902880;29;20043;-87
2023/10/17 07:43:46;;;;;;;0.10;0.10;;;;;;;;;;4918189;29;20043;-88
2023/10/17 07:46:18;;;;;;;0.20;0.20;;;;;;;;;;4918370;29;20405;-87
2023/10/17 07:48:48;;;;;;;0.10;0.10;;;;;;;;;;4918494;29;20055;-88
2023/10/17 07:51:15;;;;;;;0.10;0.10;;;;;;;;;;4918425;29;20692;-88
2023/10/17 07:53:47;;;;;;;0.10;0.10;;;;;;;;;;4902695;29;20469;-87
2023/10/17 07:56:25;;;;;;;0.10;0.10;;;;;;;;;;4918374;29;20054;-87
2023/10/17 07:58:56;;;;;;;0.20;0.20;;;;;;;;;;4918358;29;20043;-87
2023/10/17 08:01:33;;;;;;;0.10;0.10;;;;;;;;;;4902913;29;20126;-87
2023/10/17 08:04:13;;;;;;;0.10;0.10;;;;;;;;;;4902550;29;20047;-88
2023/10/17 08:06:40;;;;;;;0.10;0.10;;;;;;;;;;4902154;29;20059;-86
2023/10/17 08:09:18;;;;;;;0.10;0.10;;;;;;;;;;4902298;29;20115;-87
2023/10/17 08:11:46;;;;;;;0.10;0.10;;;;;;;;;;4920167;29;20047;-86
2023/10/17 08:14:16;;;;;;;0.10;0.10;;;;;;;;;;4918038;29;20208;-87
2023/10/17 08:16:43;;;;;;;0.10;0.10;;;;;;;;;;4914619;29;20046;-87
2023/10/17 08:19:12;;;;;;;0.10;0.10;;;;;;;;;;4921493;29;20044;-87
2023/10/17 08:24:26;;;;;;;0.65;0.22;;;;;;;;;;4908628;29;20047;-87
2023/10/17 08:29:45;;;;;;;0.10;0.10;;;;;;;;;;4917775;29;20051;-87
2023/10/17 08:34:51;;;;;;;0.17;0.17;;;;;;;;;;4897348;29;20044;-87
2023/10/17 08:37:27;;;;;;;0.10;0.10;;;;;;;;;;4907876;29;20119;-85
2023/10/17 08:39:53;;;;;;;0.20;0.20;;;;;;;;;;4900607;29;20040;-86
2023/10/17 08:42:31;;;;;;;0.10;0.10;;;;;;;;;;4917356;29;20054;-87
2023/10/17 08:44:59;;;;;;;0.20;0.20;;;;;;;;;;4903616;29;20043;-87
2023/10/17 08:47:29;;;;;;;0.10;0.10;;;;;;;;;;4896055;29;20055;-87
2023/10/17 08:49:55;;;;;;;0.10;0.10;;;;;;;;;;4917722;29;20090;-87
2023/10/17 08:52:23;;;;;;;0.10;0.10;;;;;;;;;;4901443;29;20086;-87
2023/10/17 08:54:50;;;;;;;0.10;0.10;;;;;;;;;;4886450;29;20095;-87
2023/10/17 08:57:16;;;;;;;0.10;0.10;;;;;;;;;;4898496;29;20127;-89
2023/10/17 09:02:43;;;;;;;0.13;0.13;;;;;;;;;;4897992;29;20056;-89
2023/10/17 09:05:06;;;;;;;0.40;0.40;;;;;;;;;;4883557;29;20060;-88
2023/10/17 09:07:41;;;;;;;0.10;0.10;;;;;;;;;;4899509;29;20047;-89
2023/10/17 09:10:16;;;;;;;0.10;0.10;;;;;;;;;;4918363;29;20055;-88
2023/10/17 09:12:43;;;;;;;0.10;0.10;;;;;;;;;;4924777;29;20043;-88
2023/10/17 09:15:27;;;;;;;0.10;0.10;;;;;;;;;;4917083;29;20048;-89
2023/10/17 09:18:07;;;;;;;0.10;0.10;;;;;;;;;;4898620;29;20074;-89
2023/10/17 09:20:36;;;;;;;0.10;0.10;;;;;;;;;;4883154;29;20036;-88
2023/10/17 09:23:04;;;;;;;0.10;0.10;;;;;;;;;;4932631;29;20397;-89
2023/10/17 09:25:30;;;;;;;0.10;0.10;;;;;;;;;;4917263;29;20039;-88
2023/10/17 09:27:57;;;;;;;0.10;0.10;;;;;;;;;;4917217;29;20051;-87
2023/10/17 09:30:26;;;;;;;0.30;0.30;;;;;;;;;;4934633;29;20044;-87
2023/10/17 09:32:53;;;;;;;0.10;0.10;;;;;;;;;;4917433;29;20067;-87
2023/10/17 09:35:19;;;;;;;0.10;0.10;;;;;;;;;;4917473;29;20638;-88
2023/10/17 09:37:45;;;;;;;0.20;0.20;;;;;;;;;;4916993;29;20040;-89
2023/10/17 09:40:12;;;;;;;0.17;0.17;;;;;;;;;;4901825;29;20047;-89
2023/10/17 09:42:44;;;;;;;0.20;0.20;;;;;;;;;;4902021;29;20187;-92
2023/10/17 09:45:11;;;;;;;0.10;0.10;;;;;;;;;;4886165;29;20055;-89
2023/10/17 09:47:42;;;;;;;0.10;0.10;;;;;;;;;;4903719;29;20039;-90
2023/10/17 09:50:16;;;;;;;0.10;0.10;;;;;;;;;;4886515;29;20051;-91
2023/10/17 09:52:42;;;;;;;0.10;0.10;;;;;;;;;;4914857;29;20047;-89
2023/10/17 09:55:10;;;;;;;0.20;0.20;;;;;;;;;;4913897;29;20373;-89
2023/10/17 09:57:36;;;;;;;0.20;0.20;;;;;;;;;;4908249;29;20043;-90
2023/10/17 10:00:14;;;;;;;0.10;0.10;;;;;;;;;;4908001;29;20099;-90
2023/10/17 10:02:40;;;;;;;0.10;0.10;;;;;;;;;;4939973;29;20056;-93
2023/10/17 10:05:24;;;;;;;0.10;0.10;;;;;;;;;;4908542;29;20066;-91
2023/10/17 10:07:50;;;;;;;0.10;0.10;;;;;;;;;;4924885;29;20531;-92
2023/10/17 10:10:35;;;;;;;0.15;0.15;;;;;;;;;;4939158;29;20054;-91
2023/10/17 10:13:06;;;;;;;0.10;0.10;;;;;;;;;;4922439;29;20035;-90
2023/10/17 10:15:51;;;;;;;0.13;0.13;;;;;;;;;;4939503;29;20099;-90
2023/10/17 10:18:18;;;;;;;0.20;0.20;;;;;;;;;;4923380;29;20055;-91
2023/10/17 10:20:57;;;;;;;0.20;0.20;;;;;;;;;;4939298;29;20126;-91
2023/10/17 10:23:36;;;;;;;0.20;0.20;;;;;;;;;;4939357;29;20199;-91
2023/10/17 10:26:11;;;;;;;0.20;0.20;;;;;;;;;;4907672;29;20516;-90
2023/10/17 10:28:38;;;;;;;0.10;0.10;;;;;;;;;;4923336;29;20043;-90
2023/10/17 10:31:29;;;;;;;0.10;0.10;;;;;;;;;;4907844;29;20044;-91
2023/10/17 10:33:56;;;;;;;0.20;0.20;;;;;;;;;;4946682;29;20058;-91
2023/10/17 10:36:25;;;;;;;0.10;0.10;;;;;;;;;;4907493;29;20035;-91
2023/10/17 10:38:53;;;;;;;0.10;0.10;;;;;;;;;;4907539;29;20522;-91
2023/10/17 10:41:22;;;;;;;0.10;0.10;;;;;;;;;;4938922;29;20681;-91
2023/10/17 10:43:48;;;;;;;0.13;0.13;;;;;;;;;;4907582;29;20079;-90
2023/10/17 10:46:14;;;;;;;0.10;0.10;;;;;;;;;;4907365;29;20130;-91
2023/10/17 10:48:51;;;;;;;0.10;0.10;;;;;;;;;;4938769;29;20051;-91
2023/10/17 10:51:18;;;;;;;0.20;0.20;;;;;;;;;;4907247;29;20503;-91
2023/10/17 10:53:46;;;;;;;0.10;0.10;;;;;;;;;;4939046;29;20090;-91
2023/10/17 10:56:13;;;;;;;0.10;0.10;;;;;;;;;;4907416;29;20047;-91
2023/10/17 10:58:44;;;;;;;0.10;0.10;;;;;;;;;;4907477;29;20039;-90
2023/10/17 11:01:10;;;;;;;0.10;0.10;;;;;;;;;;4938553;29;20512;-90
2023/10/17 11:03:39;;;;;;;0.40;0.40;;;;;;;;;;4938457;29;20043;-90
2023/10/17 11:06:08;;;;;;;0.10;0.10;;;;;;;;;;4938126;29;20085;-90
2023/10/17 11:08:43;;;;;;;0.10;0.10;;;;;;;;;;4922579;29;20409;-91
2023/10/17 11:11:13;;;;;;;0.10;0.10;;;;;;;;;;4922551;29;20054;-90
2023/10/17 11:13:46;;;;;;;0.20;0.20;;;;;;;;;;4907507;29;20187;-90
2023/10/17 11:16:16;;;;;;;0.10;0.10;;;;;;;;;;4922259;29;20505;-88
2023/10/17 11:18:45;;;;;;;0.10;0.10;;;;;;;;;;4938237;29;20122;-90
2023/10/17 11:21:11;;;;;;;0.10;0.10;;;;;;;;;;4938222;29;20144;-90
2023/10/17 11:23:38;;;;;;;0.10;0.10;;;;;;;;;;4906904;29;20138;-90
2023/10/17 11:26:07;;;;;;;0.20;0.20;;;;;;;;;;4906721;29;20552;-90
2023/10/17 11:28:33;;;;;;;0.10;0.10;;;;;;;;;;4906757;29;20043;-90
2023/10/17 11:31:04;;;;;;;0.10;0.10;;;;;;;;;;4922368;29;20043;-90
2023/10/17 11:33:38;;;;;;;0.20;0.20;;;;;;;;;;4938241;29;20043;-90
2023/10/17 11:36:16;;;;;;;0.10;0.10;;;;;;;;;;4938326;29;20078;-91
2023/10/17 11:38:43;;;;;;;0.10;0.10;;;;;;;;;;4937839;29;20047;-91
2023/10/17 11:41:09;;;;;;;0.10;0.10;;;;;;;;;;4906238;29;20066;-90
2023/10/17 11:43:42;;;;;;;0.10;0.10;;;;;;;;;;4937780;29;20038;-90
2023/10/17 11:46:14;;;;;;;0.10;0.10;;;;;;;;;;4906630;29;20047;-91
2023/10/17 11:48:44;;;;;;;0.20;0.20;;;;;;;;;;4937566;29;20054;-91
2023/10/17 11:51:14;;;;;;;0.10;0.10;;;;;;;;;;4906739;29;20111;-91
2023/10/17 11:54:12;;;;;;;0.10;0.10;;;;;;;;;;4937713;29;20050;-91
2023/10/17 11:56:41;;;;;;;0.10;0.10;;;;;;;;;;4896687;29;20086;-91
2023/10/17 11:59:08;;;;;;;0.10;0.10;;;;;;;;;;4937544;29;20058;-90
2023/10/17 12:01:34;;;;;;;0.10;0.10;;;;;;;;;;4937721;29;20043;-90
2023/10/17 12:04:05;;;;;;;0.20;0.20;;;;;;;;;;4937500;29;20049;-91
2023/10/17 12:06:32;;;;;;;0.20;0.20;;;;;;;;;;4937495;29;20065;-91
2023/10/17 12:08:58;;;;;;;0.10;0.10;;;;;;;;;;4905747;29;20047;-90
2023/10/17 12:11:26;;;;;;;0.10;0.10;;;;;;;;;;4937456;29;20039;-91
2023/10/17 12:13:53;;;;;;;0.10;0.10;;;;;;;;;;4937248;29;20417;-91
2023/10/17 12:16:23;;;;;;;0.10;0.10;;;;;;;;;;4936928;28;20480;-91
2023/10/17 12:18:50;;;;;;;0.10;0.10;;;;;;;;;;4936941;29;20047;-91
2023/10/17 12:21:16;;;;;;;0.15;0.15;;;;;;;;;;4937299;29;20051;-90
2023/10/17 12:23:42;;;;;;;0.10;0.10;;;;;;;;;;4937166;29;20047;-90
2023/10/17 12:26:13;;;;;;;0.10;0.10;;;;;;;;;;4921270;29;20050;-90
2023/10/17 12:28:41;;;;;;;0.20;0.20;;;;;;;;;;4906283;29;20091;-90
2023/10/17 12:31:08;;;;;;;0.75;0.32;;;;;;;;;;4905725;29;20047;-91
2023/10/17 12:33:34;;;;;;;0.10;0.10;;;;;;;;;;4936982;29;20047;-91
2023/10/17 12:36:01;;;;;;;0.10;0.10;;;;;;;;;;4936972;29;20051;-91
2023/10/17 12:38:33;;;;;;;0.10;0.10;;;;;;;;;;4921062;29;20400;-91
2023/10/17 12:40:59;;;;;;;0.10;0.10;;;;;;;;;;4921127;29;20051;-90
2023/10/17 12:43:26;;;;;;;0.32;0.32;;;;;;;;;;4905596;29;20125;-91
2023/10/17 12:45:52;;;;;;;0.20;0.20;;;;;;;;;;4936778;29;20051;-90
2023/10/17 12:48:18;;;;;;;0.20;0.20;;;;;;;;;;4905266;29;20083;-90
2023/10/17 12:50:44;;;;;;;0.10;0.10;;;;;;;;;;4936855;29;20386;-90
2023/10/17 12:53:11;;;;;;;0.10;0.10;;;;;;;;;;4905324;29;20455;-90
2023/10/17 12:55:38;;;;;;;0.20;0.20;;;;;;;;;;4936844;29;20086;-90
2023/10/17 12:58:07;;;;;;;0.10;0.10;;;;;;;;;;4937110;29;20047;-90
2023/10/17 13:00:34;;;;;;;0.10;0.10;;;;;;;;;;4937099;29;20149;-90
2023/10/17 13:03:01;;;;;;;0.10;0.10;;;;;;;;;;4905162;29;20058;-90
2023/10/17 13:05:27;;;;;;;0.10;0.10;;;;;;;;;;4920771;29;20070;-91
2023/10/17 13:07:53;;;;;;;0.10;0.10;;;;;;;;;;4936725;29;20135;-90
2023/10/17 13:10:19;;;;;;;0.10;0.10;;;;;;;;;;4920980;29;20460;-90
2023/10/17 13:12:46;;;;;;;0.10;0.10;;;;;;;;;;4920798;29;20122;-90
2023/10/17 13:15:15;;;;;;;0.10;0.10;;;;;;;;;;4905442;29;20460;-91
2023/10/17 13:17:41;;;;;;;0.20;0.20;;;;;;;;;;4905481;29;20039;-91
2023/10/17 13:20:07;;;;;;;0.10;0.10;;;;;;;;;;4921067;29;20357;-90
2023/10/17 13:22:42;;;;;;;0.10;0.10;;;;;;;;;;4936596;29;20050;-91
2023/10/17 13:25:11;;;;;;;0.10;0.10;;;;;;;;;;4906182;29;20078;-91
2023/10/17 13:27:38;;;;;;;0.10;0.10;;;;;;;;;;4936584;29;20051;-91
2023/10/17 13:30:05;;;;;;;0.10;0.10;;;;;;;;;;4938621;29;20054;-90
2023/10/17 13:32:31;;;;;;;0.10;0.10;;;;;;;;;;4908821;29;20555;-90
2023/10/17 13:34:57;;;;;;;0.10;0.10;;;;;;;;;;4940111;29;20085;-91
2023/10/17 13:37:26;;;;;;;0.10;0.10;;;;;;;;;;4940234;29;20074;-90
2023/10/17 13:39:52;;;;;;;0.10;0.10;;;;;;;;;;4940238;29;20126;-90
2023/10/17 13:42:18;;;;;;;0.10;0.10;;;;;;;;;;4908575;29;20083;-90
2023/10/17 13:44:44;;;;;;;0.10;0.10;;;;;;;;;;4940047;29;20043;-90
2023/10/17 13:47:10;;;;;;;0.10;0.10;;;;;;;;;;4940075;29;20043;-91
2023/10/17 13:49:36;;;;;;;0.20;0.20;;;;;;;;;;4940006;29;20086;-90
2023/10/17 13:52:03;;;;;;;0.10;0.10;;;;;;;;;;4939962;29;20043;-90
2023/10/17 13:54:34;;;;;;;0.10;0.10;;;;;;;;;;4939770;29;20043;-90
2023/10/17 13:57:06;;;;;;;0.10;0.10;;;;;;;;;;4940065;29;20147;-90
2023/10/17 13:59:38;;;;;;;0.20;0.20;;;;;;;;;;4924573;29;20044;-90
2023/10/17 14:02:06;;;;;;;0.10;0.10;;;;;;;;;;4939776;29;20126;-91
2023/10/17 14:04:33;;;;;;;0.20;0.20;;;;;;;;;;4923724;29;20047;-90
2023/10/17 14:07:00;;;;;;;0.10;0.10;;;;;;;;;;4923604;29;20062;-91
2023/10/17 14:09:29;;;;;;;0.10;0.10;;;;;;;;;;4939533;29;20419;-90
2023/10/17 14:11:56;;;;;;;0.10;0.10;;;;;;;;;;4908916;29;20065;-91
2023/10/17 14:14:25;;;;;;;0.10;0.10;;;;;;;;;;4939773;29;20118;-89
2023/10/17 14:16:51;;;;;;;0.10;0.10;;;;;;;;;;4939506;29;20043;-89
2023/10/17 14:22:04;;;;;;;0.10;0.10;;;;;;;;;;4926464;29;20051;-89
2023/10/17 14:27:15;;;;;;;0.10;0.10;;;;;;;;;;4926014;29;20166;-89
2023/10/17 14:29:44;;;;;;;0.10;0.10;;;;;;;;;;4939343;29;20039;-88
2023/10/17 14:32:10;;;;;;;0.10;0.10;;;;;;;;;;4908025;29;20078;-87
2023/10/17 14:34:37;;;;;;;0.10;0.10;;;;;;;;;;4939134;29;20039;-88
2023/10/17 14:37:07;;;;;;;0.10;0.10;;;;;;;;;;4907816;29;20094;-87
2023/10/17 14:39:33;;;;;;;0.03;0.03;;;;;;;;;;4938798;28;20058;-91
2023/10/17 14:41:59;;;;;;;0.10;0.10;;;;;;;;;;4939419;29;20054;-90
2023/10/17 14:44:27;;;;;;;0.10;0.10;;;;;;;;;;4922958;29;20047;-87
2023/10/17 14:46:53;;;;;;;0.10;0.10;;;;;;;;;;4923181;29;20109;-87
2023/10/17 14:49:19;;;;;;;0.10;0.10;;;;;;;;;;4938916;29;20051;-90
2023/10/17 14:51:45;;;;;;;0.10;0.10;;;;;;;;;;4939096;29;20035;-90
2023/10/17 14:54:13;;;;;;;0.10;0.10;;;;;;;;;;4938858;29;20516;-88
2023/10/17 14:56:42;;;;;;;0.10;0.10;;;;;;;;;;4938714;29;20497;-88
2023/10/17 14:59:08;;;;;;;0.10;0.10;;;;;;;;;;4938602;29;20043;-88
2023/10/17 15:01:36;;;;;;;0.10;0.10;;;;;;;;;;4938650;29;20043;-88
2023/10/17 15:04:02;;;;;;;0.10;0.10;;;;;;;;;;4938609;29;20047;-88
2023/10/17 15:06:29;;;;;;;0.10;0.10;;;;;;;;;;4938287;29;20406;-88
2023/10/17 15:08:55;;;;;;;0.10;0.10;;;;;;;;;;4938598;29;20492;-88
2023/10/17 15:11:21;;;;;;;0.10;0.10;;;;;;;;;;4938408;29;20118;-86
2023/10/17 15:13:47;;;;;;;0.10;0.10;;;;;;;;;;4938295;29;20559;-89
2023/10/17 15:16:18;;;;;;;0.10;0.10;;;;;;;;;;4938623;29;20401;-89
2023/10/17 15:18:44;;;;;;;0.10;0.10;;;;;;;;;;4907196;29;20126;-88
2023/10/17 15:21:15;;;;;;;0.10;0.10;;;;;;;;;;4922535;29;20050;-88
2023/10/17 15:23:41;;;;;;;0.20;0.20;;;;;;;;;;4938343;29;20445;-88
2023/10/17 15:26:07;;;;;;;0.43;0.25;;;;;;;;;;4938007;29;20050;-88
2023/10/17 15:28:34;;;;;;;0.10;0.10;;;;;;;;;;4906835;29;20046;-88
2023/10/17 15:31:09;;;;;;;0.10;0.10;;;;;;;;;;4938286;29;20035;-89
2023/10/17 15:33:39;;;;;;;0.10;0.10;;;;;;;;;;4940099;29;20054;-93
2023/10/17 15:36:05;;;;;;;0.10;0.10;;;;;;;;;;4925703;29;20078;-91
2023/10/17 15:38:32;;;;;;;0.10;0.10;;;;;;;;;;4907856;29;20050;-91
2023/10/17 15:40:59;;;;;;;0.10;0.10;;;;;;;;;;4906898;29;20073;-92
2023/10/17 15:43:25;;;;;;;0.10;0.10;;;;;;;;;;4938290;29;20102;-89
2023/10/17 15:45:55;;;;;;;0.10;0.10;;;;;;;;;;4938146;29;20090;-92
2023/10/17 15:48:23;;;;;;;0.10;0.10;;;;;;;;;;4907710;29;20039;-90
2023/10/17 15:50:55;;;;;;;0.10;0.10;;;;;;;;;;4937987;29;20047;-88
2023/10/17 15:53:31;;;;;;;0.10;0.10;;;;;;;;;;4906517;29;20465;-90
2023/10/17 15:55:58;;;;;;;0.10;0.10;;;;;;;;;;4937863;29;20101;-90
2023/10/17 15:58:26;;;;;;;0.10;0.10;;;;;;;;;;4938161;29;20471;-89
2023/10/17 16:00:52;;;;;;;0.10;0.10;;;;;;;;;;4921855;29;20043;-89
2023/10/17 16:03:19;;;;;;;0.10;0.10;;;;;;;;;;4937905;29;20039;-91
2023/10/17 16:05:45;;;;;;;0.10;0.10;;;;;;;;;;4906292;29;20409;-91
2023/10/17 16:08:12;;;;;;;0.10;0.10;;;;;;;;;;4937944;29;20098;-91
2023/10/17 16:10:39;;;;;;;0.10;0.10;;;;;;;;;;4922106;29;20054;-91
2023/10/17 16:13:08;;;;;;;0.10;0.10;;;;;;;;;;4906588;29;20043;-92
2023/10/17 16:15:35;;;;;;;0.10;0.10;;;;;;;;;;4906605;29;20042;-88
2023/10/17 16:18:01;;;;;;;0.10;0.10;;;;;;;;;;4954101;29;20046;-89
2023/10/17 16:20:27;;;;;;;0.10;0.10;;;;;;;;;;4936899;29;20039;-88
2023/10/17 16:22:54;;;;;;;0.10;0.10;;;;;;;;;;4936755;29;20098;-88
2023/10/17 16:25:24;;;;;;;0.10;0.10;;;;;;;;;;4937133;29;20050;-88
2023/10/17 16:27:50;;;;;;;0.10;0.10;;;;;;;;;;4905834;29;20039;-88
2023/10/17 16:30:16;;;;;;;0.10;0.10;;;;;;;;;;4937282;29;20613;-88
2023/10/17 16:32:42;;;;;;;0.10;0.10;;;;;;;;;;4920740;29;20481;-88
2023/10/17 16:35:09;;;;;;;0.10;0.10;;;;;;;;;;4936433;29;20097;-87
2023/10/17 16:37:36;;;;;;;0.10;0.10;;;;;;;;;;4937134;29;20438;-87
2023/10/17 16:40:03;;;;;;;0.10;0.10;;;;;;;;;;4905591;29;20159;-86
2023/10/17 16:42:30;;;;;;;0.10;0.10;;;;;;;;;;4936668;29;20082;-87
2023/10/17 16:44:56;;;;;;;0.10;0.10;;;;;;;;;;4937027;29;20118;-87
2023/10/17 16:47:25;;;;;;;0.10;0.10;;;;;;;;;;4936716;29;20039;-88
2023/10/17 16:49:52;;;;;;;0.10;0.10;;;;;;;;;;4936266;29;20122;-88
2023/10/17 16:52:18;;;;;;;0.10;0.10;;;;;;;;;;4921172;29;20078;-88
2023/10/17 16:54:46;;;;;;;0.10;0.10;;;;;;;;;;4905133;29;20099;-88
2023/10/17 16:57:13;;;;;;;0.10;0.10;;;;;;;;;;4937137;29;20046;-88
2023/10/17 16:59:40;;;;;;;0.10;0.10;;;;;;;;;;4954100;29;20039;-88
2023/10/17 17:02:06;;;;;;;0.10;0.10;;;;;;;;;;4936736;29;20043;-88
2023/10/17 17:04:32;;;;;;;0.10;0.10;;;;;;;;;;4939816;29;20039;-87
2023/10/17 17:06:59;;;;;;;0.10;0.10;;;;;;;;;;4940801;29;20130;-88
2023/10/17 17:09:25;;;;;;;0.10;0.10;;;;;;;;;;4924800;29;20079;-87
2023/10/17 17:11:52;;;;;;;0.10;0.10;;;;;;;;;;4940896;29;20043;-88
2023/10/17 17:14:18;;;;;;;0.10;0.10;;;;;;;;;;4940632;29;20171;-88
2023/10/17 17:16:53;;;;;;;0.10;0.10;;;;;;;;;;4924835;29;20047;-88
2023/10/17 17:19:19;;;;;;;0.10;0.10;;;;;;;;;;4940857;29;20047;-88
2023/10/17 17:21:48;;;;;;;0.10;0.10;;;;;;;;;;4940787;29;20133;-87
2023/10/17 17:24:16;;;;;;;0.10;0.10;;;;;;;;;;4924633;29;20044;-87
2023/10/17 17:26:42;;;;;;;0.10;0.10;;;;;;;;;;4924961;29;20164;-86